sensor_id;sensor_type;location;lat;lon;timestamp;P1;durP1;ratioP1;P2;durP2;ratioP2
63653;SDS011;49809;47.418;19.080;2022-11-15T00:04:27;16.85;;;7.97;;
63653;SDS011;49809;47.418;19.080;2022-11-15T00:08:10;14.38;;;7.75;;
63653;SDS011;49809;47.418;19.080;2022-11-15T00:11:51;15.07;;;8.00;;
63653;SDS011;49809;47.418;19.080;2022-11-15T00:15:41;13.85;;;6.43;;
63653;SDS011;49809;47.418;19.080;2022-11-15T00:19:24;12.05;;;6.78;;
63653;SDS011;49809;47.418;19.080;2022-11-15T00:23:09;15.02;;;7.65;;
63653;SDS011;49809;47.418;19.080;2022-11-15T00:27:00;10.38;;;7.00;;
63653;SDS011;49809;47.418;19.080;2022-11-15T00:30:47;12.70;;;6.03;;
63653;SDS011;49809;47.418;19.080;2022-11-15T00:34:41;9.05;;;5.32;;
63653;SDS011;49809;47.418;19.080;2022-11-15T00:38:45;14.87;;;7.57;;
63653;SDS011;49809;47.418;19.080;2022-11-15T00:42:29;15.30;;;6.90;;
63653;SDS011;49809;47.418;19.080;2022-11-15T00:46:13;14.40;;;7.47;;
63653;SDS011;49809;47.418;19.080;2022-11-15T00:50:14;12.43;;;6.40;;
63653;SDS011;49809;47.418;19.080;2022-11-15T00:54:16;13.73;;;7.60;;
63653;SDS011;49809;47.418;19.080;2022-11-15T00:58:00;12.30;;;6.12;;
63653;SDS011;49809;47.418;19.080;2022-11-15T01:02:07;11.75;;;6.15;;
63653;SDS011;49809;47.418;19.080;2022-11-15T01:05:43;15.98;;;7.65;;
63653;SDS011;49809;47.418;19.080;2022-11-15T01:09:04;12.70;;;6.03;;
63653;SDS011;49809;47.418;19.080;2022-11-15T01:12:25;14.35;;;7.78;;
63653;SDS011;49809;47.418;19.080;2022-11-15T01:15:48;11.10;;;5.20;;
63653;SDS011;49809;47.418;19.080;2022-11-15T01:19:11;15.63;;;6.80;;
63653;SDS011;49809;47.418;19.080;2022-11-15T01:22:32;13.50;;;7.22;;
63653;SDS011;49809;47.418;19.080;2022-11-15T01:25:58;14.10;;;6.80;;
63653;SDS011;49809;47.418;19.080;2022-11-15T01:29:19;14.25;;;6.60;;
63653;SDS011;49809;47.418;19.080;2022-11-15T01:32:44;18.65;;;7.87;;
63653;SDS011;49809;47.418;19.080;2022-11-15T01:36:08;14.52;;;7.55;;
63653;SDS011;49809;47.418;19.080;2022-11-15T01:39:40;17.50;;;7.55;;
63653;SDS011;49809;47.418;19.080;2022-11-15T01:46:47;14.23;;;6.47;;
63653;SDS011;49809;47.418;19.080;2022-11-15T01:50:12;14.10;;;6.87;;
63653;SDS011;49809;47.418;19.080;2022-11-15T01:53:38;16.83;;;7.25;;
63653;SDS011;49809;47.418;19.080;2022-11-15T01:57:24;14.05;;;6.15;;
63653;SDS011;49809;47.418;19.080;2022-11-15T02:00:46;12.27;;;6.50;;
63653;SDS011;49809;47.418;19.080;2022-11-15T02:07:37;9.82;;;5.93;;
63653;SDS011;49809;47.418;19.080;2022-11-15T02:11:20;14.00;;;6.72;;
63653;SDS011;49809;47.418;19.080;2022-11-15T02:14:42;14.55;;;6.30;;
63653;SDS011;49809;47.418;19.080;2022-11-15T02:29:36;13.00;;;7.03;;
63653;SDS011;49809;47.418;19.080;2022-11-15T02:33:21;12.43;;;6.10;;
63653;SDS011;49809;47.418;19.080;2022-11-15T02:37:19;13.60;;;6.75;;
63653;SDS011;49809;47.418;19.080;2022-11-15T02:41:09;11.45;;;6.72;;
63653;SDS011;49809;47.418;19.080;2022-11-15T02:44:40;9.20;;;5.28;;
63653;SDS011;49809;47.418;19.080;2022-11-15T02:48:04;10.50;;;6.03;;
63653;SDS011;49809;47.418;19.080;2022-11-15T02:51:38;12.48;;;5.70;;
63653;SDS011;49809;47.418;19.080;2022-11-15T03:06:05;14.38;;;7.12;;
63653;SDS011;49809;47.418;19.080;2022-11-15T03:09:41;11.25;;;4.55;;
63653;SDS011;49809;47.418;19.080;2022-11-15T03:20:17;12.23;;;6.25;;
63653;SDS011;49809;47.418;19.080;2022-11-15T03:23:40;8.30;;;4.82;;
63653;SDS011;49809;47.418;19.080;2022-11-15T03:27:06;14.35;;;5.37;;
63653;SDS011;49809;47.418;19.080;2022-11-15T03:30:29;12.30;;;6.45;;
63653;SDS011;49809;47.418;19.080;2022-11-15T03:33:57;8.52;;;5.65;;
63653;SDS011;49809;47.418;19.080;2022-11-15T03:41:36;16.35;;;5.68;;
63653;SDS011;49809;47.418;19.080;2022-11-15T03:45:10;10.63;;;6.22;;
63653;SDS011;49809;47.418;19.080;2022-11-15T03:48:41;10.90;;;5.95;;
63653;SDS011;49809;47.418;19.080;2022-11-15T03:52:10;13.65;;;6.82;;
63653;SDS011;49809;47.418;19.080;2022-11-15T03:55:37;14.48;;;6.12;;
63653;SDS011;49809;47.418;19.080;2022-11-15T03:59:18;12.45;;;6.90;;
63653;SDS011;49809;47.418;19.080;2022-11-15T04:02:42;13.75;;;6.97;;
63653;SDS011;49809;47.418;19.080;2022-11-15T04:06:03;15.32;;;7.12;;
63653;SDS011;49809;47.418;19.080;2022-11-15T04:09:44;12.48;;;6.15;;
63653;SDS011;49809;47.418;19.080;2022-11-15T04:13:26;12.40;;;6.37;;
63653;SDS011;49809;47.418;19.080;2022-11-15T04:16:50;16.12;;;7.12;;
63653;SDS011;49809;47.418;19.080;2022-11-15T04:20:13;16.30;;;7.12;;
63653;SDS011;49809;47.418;19.080;2022-11-15T04:23:56;14.95;;;6.18;;
63653;SDS011;49809;47.418;19.080;2022-11-15T04:27:27;10.57;;;5.57;;
63653;SDS011;49809;47.418;19.080;2022-11-15T04:30:49;13.75;;;6.75;;
63653;SDS011;49809;47.418;19.080;2022-11-15T04:34:12;12.10;;;6.20;;
63653;SDS011;49809;47.418;19.080;2022-11-15T04:37:33;10.60;;;5.75;;
63653;SDS011;49809;47.418;19.080;2022-11-15T04:40:55;9.45;;;5.80;;
63653;SDS011;49809;47.418;19.080;2022-11-15T04:44:16;13.82;;;6.72;;
63653;SDS011;49809;47.418;19.080;2022-11-15T04:47:37;13.38;;;6.53;;
63653;SDS011;49809;47.418;19.080;2022-11-15T04:51:21;11.85;;;6.55;;
63653;SDS011;49809;47.418;19.080;2022-11-15T04:54:42;10.70;;;5.68;;
63653;SDS011;49809;47.418;19.080;2022-11-15T04:58:04;11.82;;;5.93;;
63653;SDS011;49809;47.418;19.080;2022-11-15T05:01:27;12.05;;;5.80;;
63653;SDS011;49809;47.418;19.080;2022-11-15T05:05:09;10.55;;;5.18;;
63653;SDS011;49809;47.418;19.080;2022-11-15T05:08:30;9.70;;;5.68;;
63653;SDS011;49809;47.418;19.080;2022-11-15T05:12:13;13.77;;;6.10;;
63653;SDS011;49809;47.418;19.080;2022-11-15T05:15:40;9.77;;;5.30;;
63653;SDS011;49809;47.418;19.080;2022-11-15T05:19:01;10.75;;;5.65;;
63653;SDS011;49809;47.418;19.080;2022-11-15T05:22:25;10.65;;;4.78;;
63653;SDS011;49809;47.418;19.080;2022-11-15T05:26:08;11.07;;;5.62;;
63653;SDS011;49809;47.418;19.080;2022-11-15T05:29:32;11.40;;;5.62;;
63653;SDS011;49809;47.418;19.080;2022-11-15T05:33:13;10.90;;;5.53;;
63653;SDS011;49809;47.418;19.080;2022-11-15T05:36:54;9.60;;;4.97;;
63653;SDS011;49809;47.418;19.080;2022-11-15T05:40:24;11.85;;;5.35;;
63653;SDS011;49809;47.418;19.080;2022-11-15T05:44:05;8.45;;;4.55;;
63653;SDS011;49809;47.418;19.080;2022-11-15T05:47:45;11.55;;;5.43;;
63653;SDS011;49809;47.418;19.080;2022-11-15T05:51:08;15.77;;;5.43;;
63653;SDS011;49809;47.418;19.080;2022-11-15T05:54:31;14.25;;;6.32;;
63653;SDS011;49809;47.418;19.080;2022-11-15T05:57:53;17.27;;;6.32;;
63653;SDS011;49809;47.418;19.080;2022-11-15T06:01:24;16.45;;;6.65;;
63653;SDS011;49809;47.418;19.080;2022-11-15T06:04:47;11.60;;;5.68;;
63653;SDS011;49809;47.418;19.080;2022-11-15T06:08:08;9.70;;;5.12;;
63653;SDS011;49809;47.418;19.080;2022-11-15T06:11:30;10.75;;;5.68;;
63653;SDS011;49809;47.418;19.080;2022-11-15T06:14:51;11.50;;;6.12;;
63653;SDS011;49809;47.418;19.080;2022-11-15T06:18:12;10.82;;;5.82;;
63653;SDS011;49809;47.418;19.080;2022-11-15T06:21:55;13.05;;;6.43;;
63653;SDS011;49809;47.418;19.080;2022-11-15T06:25:39;12.30;;;5.55;;
63653;SDS011;49809;47.418;19.080;2022-11-15T06:29:04;12.48;;;6.75;;
63653;SDS011;49809;47.418;19.080;2022-11-15T06:32:26;11.10;;;7.28;;
63653;SDS011;49809;47.418;19.080;2022-11-15T06:36:20;10.18;;;5.68;;
63653;SDS011;49809;47.418;19.080;2022-11-15T06:40:01;13.15;;;6.93;;
63653;SDS011;49809;47.418;19.080;2022-11-15T06:43:45;14.07;;;6.05;;
63653;SDS011;49809;47.418;19.080;2022-11-15T06:47:09;14.73;;;6.45;;
63653;SDS011;49809;47.418;19.080;2022-11-15T06:50:30;11.43;;;6.37;;
63653;SDS011;49809;47.418;19.080;2022-11-15T06:54:16;12.30;;;5.53;;
63653;SDS011;49809;47.418;19.080;2022-11-15T06:57:51;12.75;;;6.28;;
63653;SDS011;49809;47.418;19.080;2022-11-15T07:01:12;9.43;;;6.22;;
63653;SDS011;49809;47.418;19.080;2022-11-15T07:04:33;16.52;;;7.15;;
63653;SDS011;49809;47.418;19.080;2022-11-15T07:08:18;16.08;;;7.80;;
63653;SDS011;49809;47.418;19.080;2022-11-15T07:11:52;14.00;;;7.35;;
63653;SDS011;49809;47.418;19.080;2022-11-15T07:15:33;14.30;;;7.12;;
63653;SDS011;49809;47.418;19.080;2022-11-15T07:19:42;12.98;;;7.97;;
63653;SDS011;49809;47.418;19.080;2022-11-15T07:23:25;16.33;;;8.13;;
63653;SDS011;49809;47.418;19.080;2022-11-15T07:27:02;15.48;;;6.97;;
63653;SDS011;49809;47.418;19.080;2022-11-15T07:30:20;10.20;;;6.20;;
63653;SDS011;49809;47.418;19.080;2022-11-15T07:33:43;15.02;;;7.57;;
63653;SDS011;49809;47.418;19.080;2022-11-15T07:37:24;12.20;;;6.95;;
63653;SDS011;49809;47.418;19.080;2022-11-15T07:40:55;17.00;;;7.43;;
63653;SDS011;49809;47.418;19.080;2022-11-15T07:44:30;13.73;;;7.47;;
63653;SDS011;49809;47.418;19.080;2022-11-15T07:47:50;16.83;;;7.40;;
63653;SDS011;49809;47.418;19.080;2022-11-15T07:51:11;15.82;;;7.82;;
63653;SDS011;49809;47.418;19.080;2022-11-15T07:54:55;14.80;;;7.85;;
63653;SDS011;49809;47.418;19.080;2022-11-15T07:58:59;18.90;;;8.23;;
63653;SDS011;49809;47.418;19.080;2022-11-15T08:02:44;18.15;;;7.53;;
63653;SDS011;49809;47.418;19.080;2022-11-15T08:06:19;13.77;;;7.82;;
63653;SDS011;49809;47.418;19.080;2022-11-15T08:10:09;13.38;;;7.03;;
63653;SDS011;49809;47.418;19.080;2022-11-15T08:13:33;16.23;;;8.32;;
63653;SDS011;49809;47.418;19.080;2022-11-15T08:17:07;18.02;;;8.60;;
63653;SDS011;49809;47.418;19.080;2022-11-15T08:20:42;12.88;;;7.37;;
63653;SDS011;49809;47.418;19.080;2022-11-15T08:24:32;15.90;;;7.72;;
63653;SDS011;49809;47.418;19.080;2022-11-15T08:28:05;15.65;;;7.53;;
63653;SDS011;49809;47.418;19.080;2022-11-15T08:31:26;17.77;;;7.72;;
63653;SDS011;49809;47.418;19.080;2022-11-15T08:34:44;15.90;;;8.55;;
63653;SDS011;49809;47.418;19.080;2022-11-15T08:38:20;15.85;;;8.73;;
63653;SDS011;49809;47.418;19.080;2022-11-15T08:41:38;17.12;;;9.10;;
63653;SDS011;49809;47.418;19.080;2022-11-15T08:45:10;21.00;;;8.85;;
63653;SDS011;49809;47.418;19.080;2022-11-15T08:48:46;13.57;;;7.55;;
63653;SDS011;49809;47.418;19.080;2022-11-15T08:52:05;15.60;;;8.07;;
63653;SDS011;49809;47.418;19.080;2022-11-15T08:55:43;18.17;;;8.95;;
63653;SDS011;49809;47.418;19.080;2022-11-15T08:59:24;16.75;;;8.80;;
63653;SDS011;49809;47.418;19.080;2022-11-15T09:03:26;15.00;;;8.05;;
63653;SDS011;49809;47.418;19.080;2022-11-15T09:06:48;16.45;;;9.55;;
63653;SDS011;49809;47.418;19.080;2022-11-15T09:10:18;13.02;;;7.68;;
63653;SDS011;49809;47.418;19.080;2022-11-15T09:13:39;20.15;;;9.63;;
63653;SDS011;49809;47.418;19.080;2022-11-15T09:17:02;14.75;;;9.27;;
63653;SDS011;49809;47.418;19.080;2022-11-15T09:20:24;17.85;;;9.07;;
63653;SDS011;49809;47.418;19.080;2022-11-15T09:24:05;18.45;;;9.30;;
63653;SDS011;49809;47.418;19.080;2022-11-15T09:27:46;16.05;;;8.50;;
63653;SDS011;49809;47.418;19.080;2022-11-15T09:31:07;16.45;;;9.73;;
63653;SDS011;49809;47.418;19.080;2022-11-15T09:34:29;14.98;;;7.78;;
63653;SDS011;49809;47.418;19.080;2022-11-15T09:54:32;16.75;;;7.32;;
63653;SDS011;49809;47.418;19.080;2022-11-15T09:58:10;16.35;;;7.43;;
63653;SDS011;49809;47.418;19.080;2022-11-15T10:06:09;15.95;;;8.68;;
63653;SDS011;49809;47.418;19.080;2022-11-15T10:10:12;13.93;;;7.77;;
63653;SDS011;49809;47.418;19.080;2022-11-15T10:21:40;14.52;;;8.02;;
63653;SDS011;49809;47.418;19.080;2022-11-15T10:29:27;16.10;;;8.77;;
63653;SDS011;49809;47.418;19.080;2022-11-15T10:32:31;16.02;;;8.27;;
63653;SDS011;49809;47.418;19.080;2022-11-15T10:36:17;18.73;;;8.80;;
63653;SDS011;49809;47.418;19.080;2022-11-15T10:43:18;18.80;;;8.73;;
63653;SDS011;49809;47.418;19.080;2022-11-15T10:50:07;18.42;;;8.77;;
63653;SDS011;49809;47.418;19.080;2022-11-15T10:53:56;17.30;;;9.45;;
63653;SDS011;49809;47.418;19.080;2022-11-15T11:05:29;19.62;;;9.48;;
63653;SDS011;49809;47.418;19.080;2022-11-15T11:12:48;22.48;;;10.00;;
63653;SDS011;49809;47.418;19.080;2022-11-15T11:20:13;23.60;;;10.27;;
63653;SDS011;49809;47.418;19.080;2022-11-15T11:24:41;16.55;;;9.18;;
63653;SDS011;49809;47.418;19.080;2022-11-15T11:28:25;17.95;;;9.85;;
63653;SDS011;49809;47.418;19.080;2022-11-15T11:44:28;19.08;;;10.55;;
63653;SDS011;49809;47.418;19.080;2022-11-15T11:52:03;20.67;;;9.57;;
63653;SDS011;49809;47.418;19.080;2022-11-15T11:58:40;18.48;;;9.50;;
63653;SDS011;49809;47.418;19.080;2022-11-15T12:02:31;18.17;;;10.13;;
63653;SDS011;49809;47.418;19.080;2022-11-15T12:14:19;17.65;;;9.27;;
63653;SDS011;49809;47.418;19.080;2022-11-15T12:25:58;20.00;;;10.20;;
63653;SDS011;49809;47.418;19.080;2022-11-15T12:29:36;19.12;;;9.18;;
63653;SDS011;49809;47.418;19.080;2022-11-15T12:36:00;23.60;;;10.90;;
63653;SDS011;49809;47.418;19.080;2022-11-15T12:43:37;20.08;;;10.27;;
63653;SDS011;49809;47.418;19.080;2022-11-15T12:50:59;17.17;;;9.82;;
63653;SDS011;49809;47.418;19.080;2022-11-15T12:58:28;18.80;;;9.52;;
63653;SDS011;49809;47.418;19.080;2022-11-15T13:02:43;18.83;;;9.25;;
63653;SDS011;49809;47.418;19.080;2022-11-15T13:06:55;19.08;;;9.38;;
63653;SDS011;49809;47.418;19.080;2022-11-15T13:10:33;16.90;;;9.90;;
63653;SDS011;49809;47.418;19.080;2022-11-15T13:14:07;18.58;;;9.32;;
63653;SDS011;49809;47.418;19.080;2022-11-15T13:26:12;20.20;;;10.13;;
63653;SDS011;49809;47.418;19.080;2022-11-15T13:29:47;19.37;;;9.67;;
63653;SDS011;49809;47.418;19.080;2022-11-15T13:32:56;18.45;;;9.68;;
63653;SDS011;49809;47.418;19.080;2022-11-15T13:36:34;22.02;;;9.90;;
63653;SDS011;49809;47.418;19.080;2022-11-15T13:40:26;22.05;;;10.07;;
63653;SDS011;49809;47.418;19.080;2022-11-15T13:44:18;21.02;;;10.18;;
63653;SDS011;49809;47.418;19.080;2022-11-15T13:47:30;20.45;;;9.23;;
63653;SDS011;49809;47.418;19.080;2022-11-15T13:50:35;18.77;;;9.75;;
63653;SDS011;49809;47.418;19.080;2022-11-15T13:53:46;19.52;;;10.00;;
63653;SDS011;49809;47.418;19.080;2022-11-15T13:57:34;18.58;;;9.07;;
63653;SDS011;49809;47.418;19.080;2022-11-15T14:04:52;15.30;;;8.55;;
63653;SDS011;49809;47.418;19.080;2022-11-15T14:08:22;19.33;;;9.57;;
63653;SDS011;49809;47.418;19.080;2022-11-15T14:11:49;23.00;;;10.13;;
63653;SDS011;49809;47.418;19.080;2022-11-15T14:15:45;21.33;;;10.30;;
63653;SDS011;49809;47.418;19.080;2022-11-15T14:18:52;19.67;;;9.10;;
63653;SDS011;49809;47.418;19.080;2022-11-15T14:22:20;20.80;;;9.23;;
63653;SDS011;49809;47.418;19.080;2022-11-15T14:29:59;19.48;;;8.52;;
63653;SDS011;49809;47.418;19.080;2022-11-15T14:36:36;30.42;;;13.88;;
63653;SDS011;49809;47.418;19.080;2022-11-15T14:39:41;20.50;;;10.77;;
63653;SDS011;49809;47.418;19.080;2022-11-15T14:42:49;20.33;;;8.98;;
63653;SDS011;49809;47.418;19.080;2022-11-15T14:46:11;16.98;;;8.27;;
63653;SDS011;49809;47.418;19.080;2022-11-15T14:49:16;18.20;;;8.65;;
63653;SDS011;49809;47.418;19.080;2022-11-15T14:55:23;20.30;;;9.98;;
63653;SDS011;49809;47.418;19.080;2022-11-15T14:58:46;18.45;;;9.18;;
63653;SDS011;49809;47.418;19.080;2022-11-15T15:01:51;16.80;;;9.18;;
63653;SDS011;49809;47.418;19.080;2022-11-15T15:04:53;18.92;;;8.88;;
63653;SDS011;49809;47.418;19.080;2022-11-15T15:08:08;18.33;;;9.13;;
63653;SDS011;49809;47.418;19.080;2022-11-15T15:11:13;17.77;;;8.60;;
63653;SDS011;49809;47.418;19.080;2022-11-15T15:14:45;19.67;;;9.45;;
63653;SDS011;49809;47.418;19.080;2022-11-15T15:18:09;16.92;;;8.60;;
63653;SDS011;49809;47.418;19.080;2022-11-15T15:21:36;19.73;;;9.67;;
63653;SDS011;49809;47.418;19.080;2022-11-15T15:25:00;23.60;;;10.15;;
63653;SDS011;49809;47.418;19.080;2022-11-15T15:28:03;19.35;;;10.35;;
63653;SDS011;49809;47.418;19.080;2022-11-15T15:31:06;23.73;;;11.30;;
63653;SDS011;49809;47.418;19.080;2022-11-15T15:34:13;20.98;;;10.57;;
63653;SDS011;49809;47.418;19.080;2022-11-15T15:37:49;20.75;;;11.12;;
63653;SDS011;49809;47.418;19.080;2022-11-15T15:41:14;19.75;;;9.38;;
63653;SDS011;49809;47.418;19.080;2022-11-15T15:44:19;21.70;;;9.38;;
63653;SDS011;49809;47.418;19.080;2022-11-15T15:47:24;19.10;;;9.50;;
63653;SDS011;49809;47.418;19.080;2022-11-15T15:50:32;21.92;;;10.35;;
63653;SDS011;49809;47.418;19.080;2022-11-15T15:53:36;22.40;;;11.30;;
63653;SDS011;49809;47.418;19.080;2022-11-15T15:56:56;17.62;;;9.43;;
63653;SDS011;49809;47.418;19.080;2022-11-15T16:00:02;25.50;;;12.13;;
63653;SDS011;49809;47.418;19.080;2022-11-15T16:03:12;19.33;;;9.65;;
63653;SDS011;49809;47.418;19.080;2022-11-15T16:06:41;22.67;;;11.73;;
63653;SDS011;49809;47.418;19.080;2022-11-15T16:10:29;21.05;;;9.73;;
63653;SDS011;49809;47.418;19.080;2022-11-15T16:13:57;23.98;;;10.43;;
63653;SDS011;49809;47.418;19.080;2022-11-15T16:17:01;25.08;;;12.23;;
63653;SDS011;49809;47.418;19.080;2022-11-15T16:20:04;38.95;;;17.62;;
63653;SDS011;49809;47.418;19.080;2022-11-15T16:23:12;47.15;;;19.48;;
63653;SDS011;49809;47.418;19.080;2022-11-15T16:26:36;30.15;;;14.50;;
63653;SDS011;49809;47.418;19.080;2022-11-15T16:29:46;22.77;;;11.48;;
63653;SDS011;49809;47.418;19.080;2022-11-15T16:33:09;29.25;;;13.38;;
63653;SDS011;49809;47.418;19.080;2022-11-15T16:39:32;26.37;;;13.98;;
63653;SDS011;49809;47.418;19.080;2022-11-15T16:42:56;32.22;;;14.60;;
63653;SDS011;49809;47.418;19.080;2022-11-15T16:46:08;25.83;;;12.27;;
63653;SDS011;49809;47.418;19.080;2022-11-15T16:49:31;27.42;;;13.57;;
63653;SDS011;49809;47.418;19.080;2022-11-15T16:53:11;28.10;;;14.82;;
63653;SDS011;49809;47.418;19.080;2022-11-15T16:56:29;26.87;;;13.45;;
63653;SDS011;49809;47.418;19.080;2022-11-15T16:59:48;34.53;;;14.23;;
63653;SDS011;49809;47.418;19.080;2022-11-15T17:03:22;37.78;;;15.68;;
63653;SDS011;49809;47.418;19.080;2022-11-15T17:06:48;39.47;;;16.60;;
63653;SDS011;49809;47.418;19.080;2022-11-15T17:10:15;38.13;;;17.40;;
63653;SDS011;49809;47.418;19.080;2022-11-15T17:13:38;35.00;;;15.45;;
63653;SDS011;49809;47.418;19.080;2022-11-15T17:16:56;36.33;;;15.32;;
63653;SDS011;49809;47.418;19.080;2022-11-15T17:20:24;34.53;;;14.95;;
63653;SDS011;49809;47.418;19.080;2022-11-15T17:23:29;30.23;;;13.57;;
63653;SDS011;49809;47.418;19.080;2022-11-15T17:27:01;30.65;;;14.45;;
63653;SDS011;49809;47.418;19.080;2022-11-15T17:30:39;26.58;;;12.25;;
63653;SDS011;49809;47.418;19.080;2022-11-15T17:34:32;28.62;;;12.10;;
63653;SDS011;49809;47.418;19.080;2022-11-15T17:38:08;31.00;;;14.25;;
63653;SDS011;49809;47.418;19.080;2022-11-15T17:41:28;28.30;;;11.40;;
63653;SDS011;49809;47.418;19.080;2022-11-15T17:45:03;21.87;;;10.30;;
63653;SDS011;49809;47.418;19.080;2022-11-15T17:48:38;22.95;;;11.77;;
63653;SDS011;49809;47.418;19.080;2022-11-15T17:51:56;29.17;;;13.23;;
63653;SDS011;49809;47.418;19.080;2022-11-15T17:55:29;27.55;;;12.00;;
63653;SDS011;49809;47.418;19.080;2022-11-15T17:58:59;31.17;;;14.02;;
63653;SDS011;49809;47.418;19.080;2022-11-15T18:02:27;26.92;;;12.07;;
63653;SDS011;49809;47.418;19.080;2022-11-15T18:05:58;30.55;;;12.65;;
63653;SDS011;49809;47.418;19.080;2022-11-15T18:09:26;28.65;;;11.98;;
63653;SDS011;49809;47.418;19.080;2022-11-15T18:13:01;28.95;;;12.52;;
63653;SDS011;49809;47.418;19.080;2022-11-15T18:16:48;29.70;;;11.95;;
63653;SDS011;49809;47.418;19.080;2022-11-15T18:20:10;33.88;;;12.88;;
63653;SDS011;49809;47.418;19.080;2022-11-15T18:23:56;25.67;;;12.10;;
63653;SDS011;49809;47.418;19.080;2022-11-15T18:27:26;25.60;;;12.30;;
63653;SDS011;49809;47.418;19.080;2022-11-15T18:31:02;30.25;;;14.13;;
63653;SDS011;49809;47.418;19.080;2022-11-15T18:34:28;38.55;;;13.50;;
63653;SDS011;49809;47.418;19.080;2022-11-15T18:37:55;36.22;;;14.07;;
63653;SDS011;49809;47.418;19.080;2022-11-15T18:48:59;38.45;;;17.58;;
63653;SDS011;49809;47.418;19.080;2022-11-15T18:52:22;33.55;;;15.90;;
63653;SDS011;49809;47.418;19.080;2022-11-15T18:56:00;31.80;;;13.02;;
63653;SDS011;49809;47.418;19.080;2022-11-15T19:00:04;30.85;;;13.82;;
63653;SDS011;49809;47.418;19.080;2022-11-15T19:03:38;35.17;;;14.00;;
63653;SDS011;49809;47.418;19.080;2022-11-15T19:06:58;29.73;;;13.45;;
63653;SDS011;49809;47.418;19.080;2022-11-15T19:10:35;38.58;;;14.20;;
63653;SDS011;49809;47.418;19.080;2022-11-15T19:14:15;41.95;;;16.90;;
63653;SDS011;49809;47.418;19.080;2022-11-15T19:18:06;36.20;;;14.93;;
63653;SDS011;49809;47.418;19.080;2022-11-15T19:21:33;34.35;;;14.98;;
63653;SDS011;49809;47.418;19.080;2022-11-15T19:25:08;37.70;;;13.80;;
63653;SDS011;49809;47.418;19.080;2022-11-15T19:28:51;32.40;;;13.95;;
63653;SDS011;49809;47.418;19.080;2022-11-15T19:32:36;37.17;;;15.90;;
63653;SDS011;49809;47.418;19.080;2022-11-15T19:36:45;34.70;;;16.00;;
63653;SDS011;49809;47.418;19.080;2022-11-15T19:40:16;34.63;;;14.75;;
63653;SDS011;49809;47.418;19.080;2022-11-15T19:43:59;33.13;;;12.65;;
63653;SDS011;49809;47.418;19.080;2022-11-15T19:47:36;33.65;;;14.77;;
63653;SDS011;49809;47.418;19.080;2022-11-15T19:59:29;33.55;;;14.95;;
63653;SDS011;49809;47.418;19.080;2022-11-15T20:06:56;31.30;;;13.00;;
63653;SDS011;49809;47.418;19.080;2022-11-15T20:10:22;33.17;;;16.27;;
63653;SDS011;49809;47.418;19.080;2022-11-15T20:14:10;34.13;;;15.25;;
63653;SDS011;49809;47.418;19.080;2022-11-15T20:21:16;28.67;;;13.90;;
63653;SDS011;49809;47.418;19.080;2022-11-15T20:24:53;33.67;;;14.85;;
63653;SDS011;49809;47.418;19.080;2022-11-15T20:28:28;25.30;;;12.40;;
63653;SDS011;49809;47.418;19.080;2022-11-15T20:35:52;30.65;;;14.15;;
63653;SDS011;49809;47.418;19.080;2022-11-15T20:39:15;27.48;;;12.30;;
63653;SDS011;49809;47.418;19.080;2022-11-15T20:46:58;36.80;;;15.45;;
63653;SDS011;49809;47.418;19.080;2022-11-15T20:50:44;32.40;;;15.52;;
63653;SDS011;49809;47.418;19.080;2022-11-15T21:06:55;32.53;;;15.15;;
63653;SDS011;49809;47.418;19.080;2022-11-15T21:10:26;24.52;;;13.70;;
63653;SDS011;49809;47.418;19.080;2022-11-15T21:14:11;30.77;;;14.75;;
63653;SDS011;49809;47.418;19.080;2022-11-15T21:17:47;38.60;;;15.05;;
63653;SDS011;49809;47.418;19.080;2022-11-15T21:21:22;45.63;;;17.02;;
63653;SDS011;49809;47.418;19.080;2022-11-15T21:32:22;34.47;;;14.65;;
63653;SDS011;49809;47.418;19.080;2022-11-15T21:35:59;31.45;;;13.77;;
63653;SDS011;49809;47.418;19.080;2022-11-15T21:39:37;30.55;;;16.65;;
63653;SDS011;49809;47.418;19.080;2022-11-15T21:43:11;34.00;;;15.13;;
63653;SDS011;49809;47.418;19.080;2022-11-15T21:51:22;38.38;;;16.62;;
63653;SDS011;49809;47.418;19.080;2022-11-15T21:55:02;35.58;;;15.15;;
63653;SDS011;49809;47.418;19.080;2022-11-15T21:58:41;36.03;;;15.05;;
63653;SDS011;49809;47.418;19.080;2022-11-15T22:02:16;34.38;;;14.27;;
63653;SDS011;49809;47.418;19.080;2022-11-15T22:05:53;36.28;;;16.12;;
63653;SDS011;49809;47.418;19.080;2022-11-15T22:09:40;35.38;;;14.48;;
63653;SDS011;49809;47.418;19.080;2022-11-15T22:17:11;40.15;;;15.32;;
63653;SDS011;49809;47.418;19.080;2022-11-15T22:20:51;34.58;;;14.77;;
63653;SDS011;49809;47.418;19.080;2022-11-15T22:24:40;41.25;;;15.75;;
63653;SDS011;49809;47.418;19.080;2022-11-15T22:28:28;34.90;;;13.00;;
63653;SDS011;49809;47.418;19.080;2022-11-15T22:35:48;30.15;;;14.90;;
63653;SDS011;49809;47.418;19.080;2022-11-15T22:43:39;33.72;;;14.07;;
63653;SDS011;49809;47.418;19.080;2022-11-15T22:47:15;35.85;;;14.48;;
63653;SDS011;49809;47.418;19.080;2022-11-15T22:54:30;38.63;;;14.52;;
63653;SDS011;49809;47.418;19.080;2022-11-15T23:01:58;37.17;;;14.93;;
63653;SDS011;49809;47.418;19.080;2022-11-15T23:05:37;35.28;;;13.68;;
63653;SDS011;49809;47.418;19.080;2022-11-15T23:09:15;33.13;;;14.85;;
63653;SDS011;49809;47.418;19.080;2022-11-15T23:12:50;32.22;;;11.90;;
63653;SDS011;49809;47.418;19.080;2022-11-15T23:17:07;37.38;;;15.20;;
63653;SDS011;49809;47.418;19.080;2022-11-15T23:20:53;33.42;;;14.32;;
63653;SDS011;49809;47.418;19.080;2022-11-15T23:24:30;31.70;;;12.70;;
63653;SDS011;49809;47.418;19.080;2022-11-15T23:28:08;38.65;;;14.43;;
63653;SDS011;49809;47.418;19.080;2022-11-15T23:36:02;32.53;;;13.77;;
63653;SDS011;49809;47.418;19.080;2022-11-15T23:43:39;33.67;;;14.32;;
63653;SDS011;49809;47.418;19.080;2022-11-15T23:47:23;31.85;;;14.23;;
63653;SDS011;49809;47.418;19.080;2022-11-15T23:51:08;30.58;;;13.68;;
63653;SDS011;49809;47.418;19.080;2022-11-15T23:54:54;36.67;;;13.82;;
63653;SDS011;49809;47.418;19.080;2022-11-15T23:58:38;37.92;;;14.25;;
